Akhiok, Alaska
Current Conditions -  °F | °C
As of 11:53 PM on Thursday 30 Oct 2014 (Local Time) from PADQ Reporting Station
Few Clouds Few Clouds  
Wind Chill: -3°   Ceiling: Unl
Heat Index: -1°   Visibility: 10mi
Dew Point: -5°   Wind: 5mph
Humidity: 72%   Direction: 330°NNW
Pressure: 29.38"   Gusts: NA
Location:  57.454°N, 153.546°W
Report Text: PADQ 310753Z 33004KT 10SM FEW040 M01/M05 A2938 RMK AO2 SLP951 T10061050
Loading
Personal Weather Stations






























Interactive Weather Map
Tropical Storm Tracking
New forecast layout! Learn more

10-Day Weather Forecast

Advertisements
Track Severe Weather on mobile